Bellview, New Mexico
Current Conditions -  °F | °C
As of 5:55 AM on Saturday 20 Dec 2014 (Local Time) from KCVN Reporting Station
Overcast Overcast  
Wind Chill: 21°   Ceiling: 100
Heat Index: 21°   Visibility: 1mi
Dew Point: 21°   Wind: 0mph
Humidity: 100%   Direction: NA
Pressure: 30.08"   Gusts: NA
Location:  34.8066°N, 103.126°W
Report Text: KCVN 201255Z 00000KT 1SM OVC001 M06/M06 A3008 RMK AO1
Loading
Personal Weather Stations






























Interactive Weather Map New forecast layout! Learn more

10-Day Weather Forecast

Advertisements
Track Severe Weather on mobile